sensor_id;sensor_type;location;lat;lon;timestamp;temperature;humidity
41762;DHT22;27441;50.860;0.258;2022-08-21T00:02:25;15.60;99.90
41762;DHT22;27441;50.860;0.258;2022-08-21T00:04:51;15.60;99.90
41762;DHT22;27441;50.860;0.258;2022-08-21T00:07:18;15.50;99.90
41762;DHT22;27441;50.860;0.258;2022-08-21T00:09:45;15.50;99.90
41762;DHT22;27441;50.860;0.258;2022-08-21T00:12:11;15.50;99.90
41762;DHT22;27441;50.860;0.258;2022-08-21T00:14:37;15.50;99.90
41762;DHT22;27441;50.860;0.258;2022-08-21T00:17:04;15.40;99.90
41762;DHT22;27441;50.860;0.258;2022-08-21T00:19:31;15.40;99.90
41762;DHT22;27441;50.860;0.258;2022-08-21T00:21:57;15.40;99.90
41762;DHT22;27441;50.860;0.258;2022-08-21T00:24:24;15.30;99.90
41762;DHT22;27441;50.860;0.258;2022-08-21T00:26:51;15.30;99.90
41762;DHT22;27441;50.860;0.258;2022-08-21T00:29:18;15.20;99.90
41762;DHT22;27441;50.860;0.258;2022-08-21T00:31:44;15.20;99.90
41762;DHT22;27441;50.860;0.258;2022-08-21T00:34:11;15.10;99.90
41762;DHT22;27441;50.860;0.258;2022-08-21T00:36:37;15.10;99.90
41762;DHT22;27441;50.860;0.258;2022-08-21T00:39:06;15.10;99.90
41762;DHT22;27441;50.860;0.258;2022-08-21T00:41:33;15.00;99.90
41762;DHT22;27441;50.860;0.258;2022-08-21T00:43:59;15.00;99.90
41762;DHT22;27441;50.860;0.258;2022-08-21T00:46:25;15.00;99.90
41762;DHT22;27441;50.860;0.258;2022-08-21T00:48:51;14.90;99.90
41762;DHT22;27441;50.860;0.258;2022-08-21T00:51:25;15.00;99.90
41762;DHT22;27441;50.860;0.258;2022-08-21T00:53:58;15.00;99.90
41762;DHT22;27441;50.860;0.258;2022-08-21T00:56:25;14.90;99.90
41762;DHT22;27441;50.860;0.258;2022-08-21T00:58:52;14.90;99.90
41762;DHT22;27441;50.860;0.258;2022-08-21T01:01:19;14.90;99.90
41762;DHT22;27441;50.860;0.258;2022-08-21T01:03:46;14.90;99.90
41762;DHT22;27441;50.860;0.258;2022-08-21T01:06:12;14.90;99.90
41762;DHT22;27441;50.860;0.258;2022-08-21T01:08:38;14.90;99.90
41762;DHT22;27441;50.860;0.258;2022-08-21T01:11:05;14.90;99.90
41762;DHT22;27441;50.860;0.258;2022-08-21T01:13:35;15.00;99.90
41762;DHT22;27441;50.860;0.258;2022-08-21T01:16:03;15.00;99.90
41762;DHT22;27441;50.860;0.258;2022-08-21T01:18:30;15.10;99.90
41762;DHT22;27441;50.860;0.258;2022-08-21T01:21:20;15.10;99.90
41762;DHT22;27441;50.860;0.258;2022-08-21T01:23:50;15.00;99.90
41762;DHT22;27441;50.860;0.258;2022-08-21T01:26:19;15.00;99.90
41762;DHT22;27441;50.860;0.258;2022-08-21T01:31:43;15.00;99.90
41762;DHT22;27441;50.860;0.258;2022-08-21T01:34:10;15.00;99.90
41762;DHT22;27441;50.860;0.258;2022-08-21T01:36:36;14.90;99.90
41762;DHT22;27441;50.860;0.258;2022-08-21T01:39:03;14.90;99.90
41762;DHT22;27441;50.860;0.258;2022-08-21T01:41:29;15.00;99.90
41762;DHT22;27441;50.860;0.258;2022-08-21T01:43:55;15.00;99.90
41762;DHT22;27441;50.860;0.258;2022-08-21T01:46:21;15.00;99.90
41762;DHT22;27441;50.860;0.258;2022-08-21T01:48:47;15.00;99.90
41762;DHT22;27441;50.860;0.258;2022-08-21T01:51:12;15.00;99.90
41762;DHT22;27441;50.860;0.258;2022-08-21T01:53:39;15.00;99.90
41762;DHT22;27441;50.860;0.258;2022-08-21T01:56:08;15.00;99.90
41762;DHT22;27441;50.860;0.258;2022-08-21T01:58:34;14.90;99.90
41762;DHT22;27441;50.860;0.258;2022-08-21T02:01:01;15.00;99.90
41762;DHT22;27441;50.860;0.258;2022-08-21T02:03:28;15.00;99.90
41762;DHT22;27441;50.860;0.258;2022-08-21T02:05:54;15.00;99.90
41762;DHT22;27441;50.860;0.258;2022-08-21T02:08:20;15.10;99.90
41762;DHT22;27441;50.860;0.258;2022-08-21T02:10:50;15.10;99.90
41762;DHT22;27441;50.860;0.258;2022-08-21T02:13:17;15.10;99.90
41762;DHT22;27441;50.860;0.258;2022-08-21T02:15:44;15.10;99.90
41762;DHT22;27441;50.860;0.258;2022-08-21T02:18:10;15.10;99.90
41762;DHT22;27441;50.860;0.258;2022-08-21T02:20:38;15.10;99.90
41762;DHT22;27441;50.860;0.258;2022-08-21T02:23:05;15.10;99.90
41762;DHT22;27441;50.860;0.258;2022-08-21T02:25:32;15.10;99.90
41762;DHT22;27441;50.860;0.258;2022-08-21T02:28:02;15.10;99.90
41762;DHT22;27441;50.860;0.258;2022-08-21T02:30:34;15.10;99.90
41762;DHT22;27441;50.860;0.258;2022-08-21T02:33:00;15.20;99.90
41762;DHT22;27441;50.860;0.258;2022-08-21T02:35:27;15.10;99.90
41762;DHT22;27441;50.860;0.258;2022-08-21T02:37:55;15.20;99.90
41762;DHT22;27441;50.860;0.258;2022-08-21T02:40:25;15.20;99.90
41762;DHT22;27441;50.860;0.258;2022-08-21T02:42:51;15.30;99.90
41762;DHT22;27441;50.860;0.258;2022-08-21T02:45:18;15.40;99.90
41762;DHT22;27441;50.860;0.258;2022-08-21T02:47:51;15.30;99.90
41762;DHT22;27441;50.860;0.258;2022-08-21T02:50:26;15.40;99.90
41762;DHT22;27441;50.860;0.258;2022-08-21T02:52:52;15.30;99.90
41762;DHT22;27441;50.860;0.258;2022-08-21T02:55:22;15.40;99.90
41762;DHT22;27441;50.860;0.258;2022-08-21T02:57:49;15.40;99.90
41762;DHT22;27441;50.860;0.258;2022-08-21T03:00:15;15.40;99.90
41762;DHT22;27441;50.860;0.258;2022-08-21T03:02:41;15.40;99.90
41762;DHT22;27441;50.860;0.258;2022-08-21T03:05:09;15.40;99.90
41762;DHT22;27441;50.860;0.258;2022-08-21T03:07:36;15.30;99.90
41762;DHT22;27441;50.860;0.258;2022-08-21T03:10:04;15.30;99.90
41762;DHT22;27441;50.860;0.258;2022-08-21T03:12:30;15.30;99.90
41762;DHT22;27441;50.860;0.258;2022-08-21T03:14:56;15.30;99.90
41762;DHT22;27441;50.860;0.258;2022-08-21T03:17:22;15.20;99.90
41762;DHT22;27441;50.860;0.258;2022-08-21T03:19:48;15.00;99.90
41762;DHT22;27441;50.860;0.258;2022-08-21T03:22:14;14.90;99.90
41762;DHT22;27441;50.860;0.258;2022-08-21T03:24:40;14.90;99.90
41762;DHT22;27441;50.860;0.258;2022-08-21T03:27:06;14.90;99.90
41762;DHT22;27441;50.860;0.258;2022-08-21T03:29:32;14.90;99.90
41762;DHT22;27441;50.860;0.258;2022-08-21T03:31:57;15.00;99.90
41762;DHT22;27441;50.860;0.258;2022-08-21T03:34:23;15.00;99.90
41762;DHT22;27441;50.860;0.258;2022-08-21T03:36:49;15.00;99.90
41762;DHT22;27441;50.860;0.258;2022-08-21T03:39:16;14.90;99.90
41762;DHT22;27441;50.860;0.258;2022-08-21T03:41:42;14.90;99.90
41762;DHT22;27441;50.860;0.258;2022-08-21T03:44:08;14.80;99.90
41762;DHT22;27441;50.860;0.258;2022-08-21T03:46:33;14.70;99.90
41762;DHT22;27441;50.860;0.258;2022-08-21T03:49:00;14.70;99.90
41762;DHT22;27441;50.860;0.258;2022-08-21T03:51:25;14.70;99.90
41762;DHT22;27441;50.860;0.258;2022-08-21T03:53:51;14.70;99.90
41762;DHT22;27441;50.860;0.258;2022-08-21T03:56:17;14.70;99.90
41762;DHT22;27441;50.860;0.258;2022-08-21T03:58:43;14.70;99.90
41762;DHT22;27441;50.860;0.258;2022-08-21T04:01:10;14.80;99.90
41762;DHT22;27441;50.860;0.258;2022-08-21T04:03:37;14.80;99.90
41762;DHT22;27441;50.860;0.258;2022-08-21T04:06:03;14.80;99.90
41762;DHT22;27441;50.860;0.258;2022-08-21T04:08:29;14.90;99.90
41762;DHT22;27441;50.860;0.258;2022-08-21T04:10:56;14.90;99.90
41762;DHT22;27441;50.860;0.258;2022-08-21T04:13:24;14.90;99.90
41762;DHT22;27441;50.860;0.258;2022-08-21T04:15:51;14.90;99.90
41762;DHT22;27441;50.860;0.258;2022-08-21T04:18:17;14.90;99.90
41762;DHT22;27441;50.860;0.258;2022-08-21T04:20:45;14.90;99.90
41762;DHT22;27441;50.860;0.258;2022-08-21T04:23:11;14.90;99.90
41762;DHT22;27441;50.860;0.258;2022-08-21T04:25:37;15.00;99.90
41762;DHT22;27441;50.860;0.258;2022-08-21T04:28:04;15.00;99.90
41762;DHT22;27441;50.860;0.258;2022-08-21T04:30:30;15.00;99.90
41762;DHT22;27441;50.860;0.258;2022-08-21T04:32:57;15.10;99.90
41762;DHT22;27441;50.860;0.258;2022-08-21T04:35:25;15.10;99.90
41762;DHT22;27441;50.860;0.258;2022-08-21T04:37:51;15.10;99.90
41762;DHT22;27441;50.860;0.258;2022-08-21T04:40:18;15.10;99.90
41762;DHT22;27441;50.860;0.258;2022-08-21T04:42:53;15.10;99.90
41762;DHT22;27441;50.860;0.258;2022-08-21T04:45:23;15.10;99.90
41762;DHT22;27441;50.860;0.258;2022-08-21T04:47:53;15.10;99.90
41762;DHT22;27441;50.860;0.258;2022-08-21T04:50:22;15.10;99.90
41762;DHT22;27441;50.860;0.258;2022-08-21T04:52:50;15.10;99.90
41762;DHT22;27441;50.860;0.258;2022-08-21T04:55:16;15.10;99.90
41762;DHT22;27441;50.860;0.258;2022-08-21T04:57:44;15.00;99.90
41762;DHT22;27441;50.860;0.258;2022-08-21T05:00:10;15.00;99.90
41762;DHT22;27441;50.860;0.258;2022-08-21T05:02:39;15.00;99.90
41762;DHT22;27441;50.860;0.258;2022-08-21T05:05:06;15.00;99.90
41762;DHT22;27441;50.860;0.258;2022-08-21T05:07:32;15.00;99.90
41762;DHT22;27441;50.860;0.258;2022-08-21T05:10:00;15.00;99.90
41762;DHT22;27441;50.860;0.258;2022-08-21T05:12:26;15.00;99.90
41762;DHT22;27441;50.860;0.258;2022-08-21T05:14:52;15.00;99.90
41762;DHT22;27441;50.860;0.258;2022-08-21T05:17:18;15.00;99.90
41762;DHT22;27441;50.860;0.258;2022-08-21T05:19:44;15.10;99.90
41762;DHT22;27441;50.860;0.258;2022-08-21T05:22:09;15.10;99.90
41762;DHT22;27441;50.860;0.258;2022-08-21T05:24:35;15.10;99.90
41762;DHT22;27441;50.860;0.258;2022-08-21T05:27:01;15.20;99.90
41762;DHT22;27441;50.860;0.258;2022-08-21T05:29:27;15.20;99.90
41762;DHT22;27441;50.860;0.258;2022-08-21T05:31:54;15.20;99.90
41762;DHT22;27441;50.860;0.258;2022-08-21T05:34:22;15.30;99.90
41762;DHT22;27441;50.860;0.258;2022-08-21T05:36:48;15.30;99.90
41762;DHT22;27441;50.860;0.258;2022-08-21T05:39:14;15.30;99.90
41762;DHT22;27441;50.860;0.258;2022-08-21T05:41:40;15.40;99.90
41762;DHT22;27441;50.860;0.258;2022-08-21T05:44:06;15.40;99.90
41762;DHT22;27441;50.860;0.258;2022-08-21T05:46:32;15.40;99.90
41762;DHT22;27441;50.860;0.258;2022-08-21T05:48:57;15.50;99.90
41762;DHT22;27441;50.860;0.258;2022-08-21T05:51:23;15.60;99.90
41762;DHT22;27441;50.860;0.258;2022-08-21T05:53:50;15.60;99.90
41762;DHT22;27441;50.860;0.258;2022-08-21T05:56:16;15.60;99.90
41762;DHT22;27441;50.860;0.258;2022-08-21T05:58:42;15.60;99.90
41762;DHT22;27441;50.860;0.258;2022-08-21T06:01:09;15.60;99.90
41762;DHT22;27441;50.860;0.258;2022-08-21T06:03:37;15.70;99.90
41762;DHT22;27441;50.860;0.258;2022-08-21T06:06:03;15.80;99.90
41762;DHT22;27441;50.860;0.258;2022-08-21T06:08:29;15.90;99.90
41762;DHT22;27441;50.860;0.258;2022-08-21T06:10:58;16.00;99.90
41762;DHT22;27441;50.860;0.258;2022-08-21T06:13:25;16.10;99.90
41762;DHT22;27441;50.860;0.258;2022-08-21T06:16:01;16.20;99.90
41762;DHT22;27441;50.860;0.258;2022-08-21T06:18:27;16.20;99.90
41762;DHT22;27441;50.860;0.258;2022-08-21T06:20:53;16.30;99.90
41762;DHT22;27441;50.860;0.258;2022-08-21T06:23:18;16.50;99.90
41762;DHT22;27441;50.860;0.258;2022-08-21T06:25:44;16.60;99.90
41762;DHT22;27441;50.860;0.258;2022-08-21T06:28:10;16.70;99.90
41762;DHT22;27441;50.860;0.258;2022-08-21T06:30:37;16.70;99.90
41762;DHT22;27441;50.860;0.258;2022-08-21T06:33:04;16.80;99.90
41762;DHT22;27441;50.860;0.258;2022-08-21T06:35:30;17.00;99.90
41762;DHT22;27441;50.860;0.258;2022-08-21T06:37:56;17.10;99.90
41762;DHT22;27441;50.860;0.258;2022-08-21T06:40:22;17.20;99.90
41762;DHT22;27441;50.860;0.258;2022-08-21T06:42:48;17.20;99.90
41762;DHT22;27441;50.860;0.258;2022-08-21T06:45:14;17.20;99.90
41762;DHT22;27441;50.860;0.258;2022-08-21T06:47:40;17.10;99.90
41762;DHT22;27441;50.860;0.258;2022-08-21T06:50:06;17.10;99.90
41762;DHT22;27441;50.860;0.258;2022-08-21T06:52:37;17.10;99.90
41762;DHT22;27441;50.860;0.258;2022-08-21T06:55:08;17.20;99.90
41762;DHT22;27441;50.860;0.258;2022-08-21T06:57:34;17.10;99.90
41762;DHT22;27441;50.860;0.258;2022-08-21T07:00:02;17.20;99.90
41762;DHT22;27441;50.860;0.258;2022-08-21T07:02:28;17.20;99.90
41762;DHT22;27441;50.860;0.258;2022-08-21T07:04:54;17.30;99.90
41762;DHT22;27441;50.860;0.258;2022-08-21T07:07:20;17.30;99.90
41762;DHT22;27441;50.860;0.258;2022-08-21T07:09:46;17.40;99.90
41762;DHT22;27441;50.860;0.258;2022-08-21T07:12:12;17.50;99.90
41762;DHT22;27441;50.860;0.258;2022-08-21T07:14:38;17.70;99.90
41762;DHT22;27441;50.860;0.258;2022-08-21T07:17:04;17.70;99.90
41762;DHT22;27441;50.860;0.258;2022-08-21T07:19:30;17.70;99.90
41762;DHT22;27441;50.860;0.258;2022-08-21T07:21:59;17.70;99.90
41762;DHT22;27441;50.860;0.258;2022-08-21T07:24:25;17.70;99.90
41762;DHT22;27441;50.860;0.258;2022-08-21T07:26:51;17.70;99.90
41762;DHT22;27441;50.860;0.258;2022-08-21T07:29:17;17.80;99.90
41762;DHT22;27441;50.860;0.258;2022-08-21T07:31:44;17.90;99.90
41762;DHT22;27441;50.860;0.258;2022-08-21T07:34:10;18.00;99.90
41762;DHT22;27441;50.860;0.258;2022-08-21T07:36:35;18.10;99.90
41762;DHT22;27441;50.860;0.258;2022-08-21T07:39:01;18.10;99.90
41762;DHT22;27441;50.860;0.258;2022-08-21T07:41:28;18.30;99.90
41762;DHT22;27441;50.860;0.258;2022-08-21T07:43:55;18.40;99.90
41762;DHT22;27441;50.860;0.258;2022-08-21T07:46:23;18.50;99.90
41762;DHT22;27441;50.860;0.258;2022-08-21T07:48:48;18.80;99.90
41762;DHT22;27441;50.860;0.258;2022-08-21T07:51:16;19.00;99.90
41762;DHT22;27441;50.860;0.258;2022-08-21T07:53:48;19.10;99.90
41762;DHT22;27441;50.860;0.258;2022-08-21T07:56:14;19.20;99.90
41762;DHT22;27441;50.860;0.258;2022-08-21T07:58:39;19.30;99.90
41762;DHT22;27441;50.860;0.258;2022-08-21T08:01:06;19.30;99.90
41762;DHT22;27441;50.860;0.258;2022-08-21T08:03:32;19.30;99.90
41762;DHT22;27441;50.860;0.258;2022-08-21T08:05:58;19.20;99.90
41762;DHT22;27441;50.860;0.258;2022-08-21T08:08:24;19.30;99.90
41762;DHT22;27441;50.860;0.258;2022-08-21T08:10:50;19.10;99.90
41762;DHT22;27441;50.860;0.258;2022-08-21T08:13:17;19.00;99.90
41762;DHT22;27441;50.860;0.258;2022-08-21T08:15:43;19.10;99.90
41762;DHT22;27441;50.860;0.258;2022-08-21T08:18:08;19.10;99.90
41762;DHT22;27441;50.860;0.258;2022-08-21T08:20:34;19.10;99.90
41762;DHT22;27441;50.860;0.258;2022-08-21T08:23:00;19.10;99.90
41762;DHT22;27441;50.860;0.258;2022-08-21T08:25:26;19.00;99.90
41762;DHT22;27441;50.860;0.258;2022-08-21T08:27:52;19.00;99.90
41762;DHT22;27441;50.860;0.258;2022-08-21T08:30:19;19.00;99.90
41762;DHT22;27441;50.860;0.258;2022-08-21T08:32:48;19.00;99.90
41762;DHT22;27441;50.860;0.258;2022-08-21T08:35:14;18.90;99.90
41762;DHT22;27441;50.860;0.258;2022-08-21T08:37:41;18.90;99.90
41762;DHT22;27441;50.860;0.258;2022-08-21T08:40:17;18.90;99.90
41762;DHT22;27441;50.860;0.258;2022-08-21T08:42:44;19.00;99.90
41762;DHT22;27441;50.860;0.258;2022-08-21T08:45:19;19.00;99.90
41762;DHT22;27441;50.860;0.258;2022-08-21T08:48:00;19.10;99.90
41762;DHT22;27441;50.860;0.258;2022-08-21T08:50:33;19.10;99.90
41762;DHT22;27441;50.860;0.258;2022-08-21T08:53:06;19.20;99.90
41762;DHT22;27441;50.860;0.258;2022-08-21T08:55:36;19.20;99.90
41762;DHT22;27441;50.860;0.258;2022-08-21T08:58:03;19.30;99.90
41762;DHT22;27441;50.860;0.258;2022-08-21T09:00:30;19.30;99.90
41762;DHT22;27441;50.860;0.258;2022-08-21T09:02:58;19.40;99.90
41762;DHT22;27441;50.860;0.258;2022-08-21T09:05:30;19.60;99.90
41762;DHT22;27441;50.860;0.258;2022-08-21T09:21:42;20.80;99.90
41762;DHT22;27441;50.860;0.258;2022-08-21T09:29:37;21.20;99.90
41762;DHT22;27441;50.860;0.258;2022-08-21T09:32:20;21.00;99.90
41762;DHT22;27441;50.860;0.258;2022-08-21T09:40:39;20.50;99.90
41762;DHT22;27441;50.860;0.258;2022-08-21T09:43:17;20.40;99.90
41762;DHT22;27441;50.860;0.258;2022-08-21T09:45:43;20.40;99.90
41762;DHT22;27441;50.860;0.258;2022-08-21T09:48:22;20.50;99.90
41762;DHT22;27441;50.860;0.258;2022-08-21T09:50:49;20.90;99.90
41762;DHT22;27441;50.860;0.258;2022-08-21T09:53:22;21.00;99.90
41762;DHT22;27441;50.860;0.258;2022-08-21T09:55:55;21.10;99.90
41762;DHT22;27441;50.860;0.258;2022-08-21T09:58:41;21.10;99.90
41762;DHT22;27441;50.860;0.258;2022-08-21T10:01:17;20.80;99.90
41762;DHT22;27441;50.860;0.258;2022-08-21T10:03:43;20.70;99.90
41762;DHT22;27441;50.860;0.258;2022-08-21T10:06:10;20.70;99.90
41762;DHT22;27441;50.860;0.258;2022-08-21T10:08:45;21.00;99.90
41762;DHT22;27441;50.860;0.258;2022-08-21T10:11:16;21.40;99.90
41762;DHT22;27441;50.860;0.258;2022-08-21T10:14:01;21.40;99.90
41762;DHT22;27441;50.860;0.258;2022-08-21T10:22:02;21.30;99.90
41762;DHT22;27441;50.860;0.258;2022-08-21T10:24:37;21.30;99.90
41762;DHT22;27441;50.860;0.258;2022-08-21T10:30:12;21.50;99.90
41762;DHT22;27441;50.860;0.258;2022-08-21T10:35:41;21.60;99.90
41762;DHT22;27441;50.860;0.258;2022-08-21T10:46:47;22.20;99.90
41762;DHT22;27441;50.860;0.258;2022-08-21T10:55:20;23.20;99.90
41762;DHT22;27441;50.860;0.258;2022-08-21T10:57:59;23.80;99.90
41762;DHT22;27441;50.860;0.258;2022-08-21T11:00:49;24.60;99.90
41762;DHT22;27441;50.860;0.258;2022-08-21T11:06:00;25.90;99.90
41762;DHT22;27441;50.860;0.258;2022-08-21T11:08:39;25.50;99.90
41762;DHT22;27441;50.860;0.258;2022-08-21T11:11:30;24.90;99.90
41762;DHT22;27441;50.860;0.258;2022-08-21T11:16:44;25.30;99.90
41762;DHT22;27441;50.860;0.258;2022-08-21T11:19:13;26.40;99.90
41762;DHT22;27441;50.860;0.258;2022-08-21T11:24:32;27.40;99.90
41762;DHT22;27441;50.860;0.258;2022-08-21T11:29:36;26.30;99.90
41762;DHT22;27441;50.860;0.258;2022-08-21T11:54:45;23.90;99.90
41762;DHT22;27441;50.860;0.258;2022-08-21T11:57:23;23.70;99.90
41762;DHT22;27441;50.860;0.258;2022-08-21T12:00:06;23.60;99.90
41762;DHT22;27441;50.860;0.258;2022-08-21T12:02:42;23.60;99.90
41762;DHT22;27441;50.860;0.258;2022-08-21T12:05:21;23.40;99.90
41762;DHT22;27441;50.860;0.258;2022-08-21T12:07:47;23.40;99.90
41762;DHT22;27441;50.860;0.258;2022-08-21T12:10:32;23.30;99.90
41762;DHT22;27441;50.860;0.258;2022-08-21T12:13:21;23.30;99.90
41762;DHT22;27441;50.860;0.258;2022-08-21T12:15:47;23.30;99.90
41762;DHT22;27441;50.860;0.258;2022-08-21T12:18:28;23.20;99.90
41762;DHT22;27441;50.860;0.258;2022-08-21T12:21:03;23.30;99.90
41762;DHT22;27441;50.860;0.258;2022-08-21T12:23:31;23.30;99.90
41762;DHT22;27441;50.860;0.258;2022-08-21T12:28:30;23.20;99.90
41762;DHT22;27441;50.860;0.258;2022-08-21T12:30:56;23.30;99.90
41762;DHT22;27441;50.860;0.258;2022-08-21T12:33:35;23.50;99.90
41762;DHT22;27441;50.860;0.258;2022-08-21T12:36:15;23.40;99.90
41762;DHT22;27441;50.860;0.258;2022-08-21T12:39:12;23.30;99.90
41762;DHT22;27441;50.860;0.258;2022-08-21T12:41:48;23.30;99.90
41762;DHT22;27441;50.860;0.258;2022-08-21T12:44:20;23.20;99.90
41762;DHT22;27441;50.860;0.258;2022-08-21T12:47:11;23.20;99.90
41762;DHT22;27441;50.860;0.258;2022-08-21T12:50:06;23.30;99.90
41762;DHT22;27441;50.860;0.258;2022-08-21T12:52:38;23.20;99.90
41762;DHT22;27441;50.860;0.258;2022-08-21T12:55:07;23.10;99.90
41762;DHT22;27441;50.860;0.258;2022-08-21T12:57:36;22.80;99.90
41762;DHT22;27441;50.860;0.258;2022-08-21T13:00:07;22.70;99.90
41762;DHT22;27441;50.860;0.258;2022-08-21T13:02:41;22.70;99.90
41762;DHT22;27441;50.860;0.258;2022-08-21T13:05:14;22.60;99.90
41762;DHT22;27441;50.860;0.258;2022-08-21T13:07:46;22.50;99.90
41762;DHT22;27441;50.860;0.258;2022-08-21T13:10:22;22.30;99.90
41762;DHT22;27441;50.860;0.258;2022-08-21T13:12:50;22.10;99.90
41762;DHT22;27441;50.860;0.258;2022-08-21T13:15:34;22.20;99.90
41762;DHT22;27441;50.860;0.258;2022-08-21T13:18:02;22.30;99.90
41762;DHT22;27441;50.860;0.258;2022-08-21T13:20:35;22.40;99.90
41762;DHT22;27441;50.860;0.258;2022-08-21T13:23:02;22.40;99.90
41762;DHT22;27441;50.860;0.258;2022-08-21T13:25:34;22.30;99.90
41762;DHT22;27441;50.860;0.258;2022-08-21T13:28:09;22.10;99.90
41762;DHT22;27441;50.860;0.258;2022-08-21T13:30:43;22.10;99.90
41762;DHT22;27441;50.860;0.258;2022-08-21T13:33:11;22.10;99.90
41762;DHT22;27441;50.860;0.258;2022-08-21T13:38:17;22.10;99.90
41762;DHT22;27441;50.860;0.258;2022-08-21T13:40:53;21.90;99.90
41762;DHT22;27441;50.860;0.258;2022-08-21T13:43:26;21.70;99.90
41762;DHT22;27441;50.860;0.258;2022-08-21T13:45:55;21.50;99.90
41762;DHT22;27441;50.860;0.258;2022-08-21T13:48:26;21.40;99.90
41762;DHT22;27441;50.860;0.258;2022-08-21T13:50:54;21.40;99.90
41762;DHT22;27441;50.860;0.258;2022-08-21T13:53:34;21.40;99.90
41762;DHT22;27441;50.860;0.258;2022-08-21T13:56:01;21.30;99.90
41762;DHT22;27441;50.860;0.258;2022-08-21T13:58:42;21.10;99.90
41762;DHT22;27441;50.860;0.258;2022-08-21T14:01:21;21.00;99.90
41762;DHT22;27441;50.860;0.258;2022-08-21T14:03:48;20.80;99.90
41762;DHT22;27441;50.860;0.258;2022-08-21T14:06:23;20.80;99.90
41762;DHT22;27441;50.860;0.258;2022-08-21T14:09:02;20.80;99.90
41762;DHT22;27441;50.860;0.258;2022-08-21T14:11:34;20.80;99.90
41762;DHT22;27441;50.860;0.258;2022-08-21T14:14:05;20.90;99.90
41762;DHT22;27441;50.860;0.258;2022-08-21T14:16:46;20.90;99.90
41762;DHT22;27441;50.860;0.258;2022-08-21T14:19:21;20.80;99.90
41762;DHT22;27441;50.860;0.258;2022-08-21T14:21:48;20.80;99.90
41762;DHT22;27441;50.860;0.258;2022-08-21T14:26:51;20.60;99.90
41762;DHT22;27441;50.860;0.258;2022-08-21T14:29:19;20.50;99.90
41762;DHT22;27441;50.860;0.258;2022-08-21T14:31:54;20.30;99.90
41762;DHT22;27441;50.860;0.258;2022-08-21T14:34:26;20.30;99.90
41762;DHT22;27441;50.860;0.258;2022-08-21T14:36:53;20.30;99.90
41762;DHT22;27441;50.860;0.258;2022-08-21T14:39:20;20.40;99.90
41762;DHT22;27441;50.860;0.258;2022-08-21T14:41:46;20.30;99.90
41762;DHT22;27441;50.860;0.258;2022-08-21T14:44:16;20.30;99.90
41762;DHT22;27441;50.860;0.258;2022-08-21T14:46:42;20.20;99.90
41762;DHT22;27441;50.860;0.258;2022-08-21T14:49:07;20.20;99.90
41762;DHT22;27441;50.860;0.258;2022-08-21T14:51:33;20.20;99.90
41762;DHT22;27441;50.860;0.258;2022-08-21T14:53:59;20.20;99.90
41762;DHT22;27441;50.860;0.258;2022-08-21T14:56:25;20.20;99.90
41762;DHT22;27441;50.860;0.258;2022-08-21T14:58:52;20.10;99.90
41762;DHT22;27441;50.860;0.258;2022-08-21T15:01:20;20.00;99.90
41762;DHT22;27441;50.860;0.258;2022-08-21T15:03:47;20.00;99.90
41762;DHT22;27441;50.860;0.258;2022-08-21T15:06:14;20.00;99.90
41762;DHT22;27441;50.860;0.258;2022-08-21T15:08:41;20.00;99.90
41762;DHT22;27441;50.860;0.258;2022-08-21T15:11:08;20.00;99.90
41762;DHT22;27441;50.860;0.258;2022-08-21T15:13:36;20.00;99.90
41762;DHT22;27441;50.860;0.258;2022-08-21T15:16:02;19.90;99.90
41762;DHT22;27441;50.860;0.258;2022-08-21T15:18:29;20.00;99.90
41762;DHT22;27441;50.860;0.258;2022-08-21T15:20:56;20.10;99.90
41762;DHT22;27441;50.860;0.258;2022-08-21T15:23:21;20.10;99.90
41762;DHT22;27441;50.860;0.258;2022-08-21T15:25:49;20.10;99.90
41762;DHT22;27441;50.860;0.258;2022-08-21T15:28:16;20.10;99.90
41762;DHT22;27441;50.860;0.258;2022-08-21T15:30:43;20.20;99.90
41762;DHT22;27441;50.860;0.258;2022-08-21T15:33:10;20.20;99.90
41762;DHT22;27441;50.860;0.258;2022-08-21T15:35:36;20.10;99.90
41762;DHT22;27441;50.860;0.258;2022-08-21T15:38:02;20.10;99.90
41762;DHT22;27441;50.860;0.258;2022-08-21T15:40:28;20.10;99.90
41762;DHT22;27441;50.860;0.258;2022-08-21T15:43:00;20.10;99.90
41762;DHT22;27441;50.860;0.258;2022-08-21T15:45:27;20.00;99.90
41762;DHT22;27441;50.860;0.258;2022-08-21T15:47:53;19.80;99.90
41762;DHT22;27441;50.860;0.258;2022-08-21T15:50:20;19.90;99.90
41762;DHT22;27441;50.860;0.258;2022-08-21T15:52:46;20.00;99.90
41762;DHT22;27441;50.860;0.258;2022-08-21T15:55:12;20.10;99.90
41762;DHT22;27441;50.860;0.258;2022-08-21T15:57:43;20.10;99.90
41762;DHT22;27441;50.860;0.258;2022-08-21T16:00:19;20.10;99.90
41762;DHT22;27441;50.860;0.258;2022-08-21T16:02:47;20.00;99.90
41762;DHT22;27441;50.860;0.258;2022-08-21T16:05:16;20.10;99.90
41762;DHT22;27441;50.860;0.258;2022-08-21T16:07:43;20.00;99.90
41762;DHT22;27441;50.860;0.258;2022-08-21T16:10:10;20.20;99.90
41762;DHT22;27441;50.860;0.258;2022-08-21T16:12:43;20.20;99.90
41762;DHT22;27441;50.860;0.258;2022-08-21T16:15:12;20.20;99.90
41762;DHT22;27441;50.860;0.258;2022-08-21T16:17:39;20.10;99.90
41762;DHT22;27441;50.860;0.258;2022-08-21T16:20:09;20.00;99.90
41762;DHT22;27441;50.860;0.258;2022-08-21T16:22:36;20.10;99.90
41762;DHT22;27441;50.860;0.258;2022-08-21T16:25:04;20.30;99.90
41762;DHT22;27441;50.860;0.258;2022-08-21T16:27:31;20.40;99.90
41762;DHT22;27441;50.860;0.258;2022-08-21T16:29:57;20.50;99.90
41762;DHT22;27441;50.860;0.258;2022-08-21T16:32:23;20.50;99.90
41762;DHT22;27441;50.860;0.258;2022-08-21T16:34:49;20.50;99.90
41762;DHT22;27441;50.860;0.258;2022-08-21T16:37:15;20.40;99.90
41762;DHT22;27441;50.860;0.258;2022-08-21T16:39:41;20.30;99.90
41762;DHT22;27441;50.860;0.258;2022-08-21T16:42:10;20.20;99.90
41762;DHT22;27441;50.860;0.258;2022-08-21T16:44:37;20.20;99.90
41762;DHT22;27441;50.860;0.258;2022-08-21T16:47:03;20.30;99.90
41762;DHT22;27441;50.860;0.258;2022-08-21T16:49:28;20.30;99.90
41762;DHT22;27441;50.860;0.258;2022-08-21T16:51:54;20.30;99.90
41762;DHT22;27441;50.860;0.258;2022-08-21T16:54:20;20.20;99.90
41762;DHT22;27441;50.860;0.258;2022-08-21T16:56:46;20.30;99.90
41762;DHT22;27441;50.860;0.258;2022-08-21T16:59:12;20.30;99.90
41762;DHT22;27441;50.860;0.258;2022-08-21T17:01:38;20.20;99.90
41762;DHT22;27441;50.860;0.258;2022-08-21T17:04:04;20.00;99.90
41762;DHT22;27441;50.860;0.258;2022-08-21T17:06:30;19.90;99.90
41762;DHT22;27441;50.860;0.258;2022-08-21T17:08:57;19.90;99.90
41762;DHT22;27441;50.860;0.258;2022-08-21T17:11:41;19.90;99.90
41762;DHT22;27441;50.860;0.258;2022-08-21T17:14:16;19.90;99.90
41762;DHT22;27441;50.860;0.258;2022-08-21T17:16:46;19.90;99.90